createdAt,value
2023-05-02T00:01:21.588Z,102124.31
2023-05-02T00:03:48.835Z,102131.47
2023-05-02T00:06:15.993Z,102128.03
2023-05-02T00:08:43.163Z,102126.34
2023-05-02T00:11:10.213Z,102124.53
2023-05-02T00:13:37.134Z,102115.78
2023-05-02T00:16:04.372Z,102128.13
2023-05-02T00:18:31.313Z,102126.47
2023-05-02T00:20:58.333Z,102139.78
2023-05-02T00:23:25.387Z,102145.16
2023-05-02T00:25:52.355Z,102140.84
2023-05-02T00:28:19.353Z,102142.56
2023-05-02T00:30:47.457Z,102140.84
2023-05-02T00:33:16.224Z,102139.09
2023-05-02T00:35:43.384Z,102142.66
2023-05-02T00:38:10.389Z,102139.22
2023-05-02T00:40:48.490Z,102142.81
2023-05-02T00:43:16.509Z,102148.97
2023-05-02T00:45:45.882Z,102151.69
2023-05-02T00:48:13.615Z,102148.16
2023-05-02T00:50:42.584Z,102152.66
2023-05-02T00:53:10.731Z,102159.88
2023-05-02T00:55:38.012Z,102155.50
2023-05-02T00:58:16.879Z,102157.31
2023-05-02T01:00:59.879Z,102160.06
2023-05-02T01:03:46.629Z,102162.78
2023-05-02T01:06:19.738Z,102161.94
2023-05-02T01:09:17.909Z,102161.94
2023-05-02T01:11:48.484Z,102154.88
2023-05-02T01:14:15.905Z,102155.84
2023-05-02T01:16:46.075Z,102148.81
2023-05-02T01:19:25.714Z,102132.91
2023-05-02T01:21:54.650Z,102131.31
2023-05-02T01:24:37.406Z,102134.81
2023-05-02T01:27:42.484Z,102147.28
2023-05-02T01:30:12.104Z,102153.53
2023-05-02T01:32:41.439Z,102144.78
2023-05-02T01:35:11.140Z,102158.00
2023-05-02T01:37:39.834Z,102158.03
2023-05-02T01:40:21.140Z,102158.97
2023-05-02T01:42:49.013Z,102152.00
2023-05-02T01:45:16.977Z,102159.03
2023-05-02T01:47:46.392Z,102157.25
2023-05-02T01:50:17.819Z,102154.59
2023-05-02T01:52:47.855Z,102159.03
2023-05-02T01:55:17.900Z,102160.81
2023-05-02T01:57:47.979Z,102160.81
2023-05-02T02:00:18.958Z,102158.34
2023-05-02T02:02:48.104Z,102159.03
2023-05-02T02:05:15.303Z,102151.13
2023-05-02T02:07:44.125Z,102148.53
2023-05-02T02:10:11.575Z,102153.84
2023-05-02T02:12:38.490Z,102151.25
2023-05-02T02:15:15.005Z,102155.69
2023-05-02T02:17:50.556Z,102165.41
2023-05-02T02:20:19.226Z,102155.75
2023-05-02T02:22:46.993Z,102159.25
2023-05-02T02:25:17.023Z,102148.63
2023-05-02T02:27:44.315Z,102150.38
2023-05-02T02:30:12.228Z,102148.63
2023-05-02T02:32:39.175Z,102146.84
2023-05-02T02:35:07.595Z,102146.84
2023-05-02T02:37:49.389Z,102144.22
2023-05-02T02:40:38.430Z,102148.63
2023-05-02T02:43:20.890Z,102149.59
2023-05-02T02:45:54.009Z,102154.00
2023-05-02T02:48:36.330Z,102154.81
2023-05-02T02:51:16.290Z,102160.13
2023-05-02T02:54:25.939Z,102161.97
2023-05-02T02:57:01.923Z,102154.00
2023-05-02T02:59:41.752Z,102151.47
2023-05-02T03:02:10.563Z,102154.00
2023-05-02T03:04:42.585Z,102160.22
2023-05-02T03:07:09.895Z,102154.09
2023-05-02T03:09:47.714Z,102156.66
2023-05-02T03:12:15.180Z,102161.97
2023-05-02T03:14:42.957Z,102161.91
2023-05-02T03:17:10.260Z,102160.13
2023-05-02T03:19:37.739Z,102160.97
2023-05-02T03:22:05.486Z,102167.16
2023-05-02T03:24:32.525Z,102163.63
2023-05-02T03:27:00.144Z,102159.25
2023-05-02T03:29:27.268Z,102155.75
2023-05-02T03:31:54.206Z,102160.13
2023-05-02T03:34:22.563Z,102160.97
2023-05-02T03:36:49.675Z,102161.78
2023-05-02T03:39:16.802Z,102161.84
2023-05-02T03:41:44.230Z,102158.41
2023-05-02T03:44:11.356Z,102158.28
2023-05-02T03:46:38.624Z,102172.47
2023-05-02T03:49:05.587Z,102168.91
2023-05-02T03:51:34.204Z,102164.44
2023-05-02T03:54:03.109Z,102166.19
2023-05-02T03:56:30.254Z,102163.53
2023-05-02T03:58:57.325Z,102167.03
2023-05-02T04:01:24.366Z,102163.44
2023-05-02T04:03:52.965Z,102166.97
2023-05-02T04:06:19.933Z,102167.91
2023-05-02T04:08:46.909Z,102167.03
2023-05-02T04:11:13.861Z,102161.75
2023-05-02T04:13:40.941Z,102163.44
2023-05-02T04:16:07.985Z,102167.91
2023-05-02T04:18:35.013Z,102168.75
2023-05-02T04:21:02.004Z,102167.84
2023-05-02T04:23:28.947Z,102166.09
2023-05-02T04:25:56.864Z,102169.63
2023-05-02T04:28:24.472Z,102171.38
2023-05-02T04:30:51.921Z,102168.66
2023-05-02T04:33:19.059Z,102170.44
2023-05-02T04:35:46.460Z,102172.09
2023-05-02T04:38:13.655Z,102172.97
2023-05-02T04:40:41.265Z,102172.09
2023-05-02T04:43:08.254Z,102169.44
2023-05-02T04:45:37.016Z,102159.66
2023-05-02T04:48:04.961Z,102170.88
2023-05-02T04:50:32.673Z,102169.09
2023-05-02T04:52:59.789Z,102178.69
2023-05-02T04:55:26.936Z,102181.19
2023-05-02T04:57:53.870Z,102176.84
2023-05-02T05:00:22.166Z,102173.19
2023-05-02T05:02:49.210Z,102177.63
2023-05-02T05:05:16.323Z,102180.28
2023-05-02T05:07:43.886Z,102181.91
2023-05-02T05:10:11.886Z,102178.31
2023-05-02T05:12:39.050Z,102188.81
2023-05-02T05:15:07.229Z,102192.25
2023-05-02T05:17:34.343Z,102198.31
2023-05-02T05:20:01.767Z,102195.59
2023-05-02T05:22:29.057Z,102209.72
2023-05-02T05:24:56.136Z,102201.72
2023-05-02T05:27:23.310Z,102203.81
2023-05-02T05:29:50.341Z,102217.81
2023-05-02T05:32:17.403Z,102210.69
2023-05-02T05:34:44.470Z,102217.75
2023-05-02T05:37:11.570Z,102217.06
2023-05-02T05:39:38.574Z,102219.84
2023-05-02T05:42:06.412Z,102219.94
2023-05-02T05:44:33.583Z,102230.50
2023-05-02T05:47:00.621Z,102229.75
2023-05-02T05:49:27.728Z,102235.28
2023-05-02T05:51:54.739Z,102231.84
2023-05-02T05:54:21.939Z,102233.66
2023-05-02T05:56:49.016Z,102232.84
2023-05-02T05:59:16.203Z,102234.59
2023-05-02T06:01:43.404Z,102234.63
2023-05-02T06:04:10.507Z,102240.00
2023-05-02T06:06:37.927Z,102234.81
2023-05-02T06:09:05.010Z,102237.47
2023-05-02T06:11:31.958Z,102242.34
2023-05-02T06:13:59.021Z,102232.53
2023-05-02T06:16:26.132Z,102242.56
2023-05-02T06:18:53.621Z,102241.69
2023-05-02T06:21:20.955Z,102241.00
2023-05-02T06:23:47.949Z,102240.13
2023-05-02T06:26:15.527Z,102242.84
2023-05-02T06:28:42.609Z,102244.72
2023-05-02T06:31:09.775Z,102251.75
2023-05-02T06:33:37.357Z,102244.25
2023-05-02T06:36:04.517Z,102246.00
2023-05-02T06:38:31.700Z,102254.66
2023-05-02T06:40:58.894Z,102257.13
2023-05-02T06:43:25.937Z,102256.16
2023-05-02T06:45:55.157Z,102251.88
2023-05-02T06:48:23.131Z,102255.44
2023-05-02T06:50:51.926Z,102251.09
2023-05-02T06:53:19.053Z,102252.94
2023-05-02T06:55:47.375Z,102255.53
2023-05-02T06:58:15.052Z,102256.22
2023-05-02T07:00:42.572Z,102253.91
2023-05-02T07:03:11.601Z,102259.91
2023-05-02T07:05:38.996Z,102249.22
2023-05-02T07:08:06.757Z,102257.94
2023-05-02T07:10:33.939Z,102256.97
2023-05-02T07:13:01.063Z,102257.88
2023-05-02T07:15:28.456Z,102258.59
2023-05-02T07:17:55.646Z,102247.03
2023-05-02T07:20:23.817Z,102247.78
2023-05-02T07:22:51.234Z,102253.00
2023-05-02T07:25:18.765Z,102254.75
2023-05-02T07:27:46.086Z,102259.94
2023-05-02T07:30:13.789Z,102251.13
2023-05-02T07:32:41.254Z,102260.69
2023-05-02T07:35:10.075Z,102257.09
2023-05-02T07:37:37.505Z,102263.25
2023-05-02T07:40:05.286Z,102265.03
2023-05-02T07:42:36.677Z,102269.47
2023-05-02T07:45:03.927Z,102276.38
2023-05-02T07:47:31.146Z,102276.22
2023-05-02T07:49:58.588Z,102281.53
2023-05-02T07:52:26.640Z,102278.03
2023-05-02T07:54:53.720Z,102273.72
2023-05-02T07:57:20.770Z,102278.19
2023-05-02T07:59:48.450Z,102279.13
2023-05-02T08:02:18.273Z,102275.53
2023-05-02T08:04:45.567Z,102272.84
2023-05-02T08:07:12.644Z,102271.84
2023-05-02T08:09:39.840Z,102277.19
2023-05-02T08:12:06.993Z,102275.50
2023-05-02T08:14:34.526Z,102274.44
2023-05-02T08:17:02.013Z,102269.88
2023-05-02T08:19:29.429Z,102261.94
2023-05-02T08:21:56.876Z,102266.31
2023-05-02T08:24:24.188Z,102264.56
2023-05-02T08:26:51.281Z,102272.34
2023-05-02T08:29:18.547Z,102267.16
2023-05-02T08:31:45.914Z,102268.81
2023-05-02T08:34:13.194Z,102271.63
2023-05-02T08:36:40.544Z,102268.03
2023-05-02T08:39:11.160Z,102276.78
2023-05-02T08:41:39.190Z,102271.44
2023-05-02T08:44:08.589Z,102259.13
2023-05-02T08:46:37.753Z,102270.56
2023-05-02T08:49:06.464Z,102266.03
2023-05-02T08:51:36.329Z,102271.34
2023-05-02T08:54:04.475Z,102271.22
2023-05-02T08:56:35.929Z,102275.78
2023-05-02T08:59:03.931Z,102281.06
2023-05-02T09:01:33.318Z,102281.97
2023-05-02T09:04:00.516Z,102280.25
2023-05-02T09:06:29.794Z,102276.78
2023-05-02T09:09:01.138Z,102280.41
2023-05-02T09:11:33.528Z,102279.44
2023-05-02T09:14:04.542Z,102277.75
2023-05-02T09:16:41.734Z,102284.03
2023-05-02T09:19:10.227Z,102288.38
2023-05-02T09:21:38.394Z,102285.00
2023-05-02T09:24:20.314Z,102293.66
2023-05-02T09:27:04.025Z,102298.47
2023-05-02T09:29:36.712Z,102290.16
2023-05-02T09:32:05.743Z,102291.56
2023-05-02T09:34:35.511Z,102284.06
2023-05-02T09:37:06.269Z,102290.00
2023-05-02T09:39:33.544Z,102282.22
2023-05-02T09:42:03.385Z,102288.72
2023-05-02T09:44:38.596Z,102290.38
2023-05-02T09:47:07.403Z,102280.09
2023-05-02T09:49:47.038Z,102279.84
2023-05-02T09:52:20.293Z,102282.88
2023-05-02T09:54:48.486Z,102289.25
2023-05-02T09:57:15.644Z,102293.81
2023-05-02T09:59:53.675Z,102290.66
2023-05-02T10:02:22.292Z,102296.28
2023-05-02T10:04:51.091Z,102299.38
2023-05-02T10:07:18.595Z,102305.38
2023-05-02T10:09:46.836Z,102301.69
2023-05-02T10:12:19.453Z,102293.59
2023-05-02T10:14:53.854Z,102298.78
2023-05-02T10:17:32.715Z,102310.94
2023-05-02T10:20:08.517Z,102309.00
2023-05-02T10:22:37.217Z,102303.56
2023-05-02T10:25:05.635Z,102297.28
2023-05-02T10:27:33.762Z,102308.56
2023-05-02T10:30:04.781Z,102311.13
2023-05-02T10:32:35.201Z,102306.66
2023-05-02T10:35:07.488Z,102311.97
2023-05-02T10:37:39.791Z,102309.31
2023-05-02T10:40:11.909Z,102309.25
2023-05-02T10:42:42.775Z,102304.81
2023-05-02T10:45:30.258Z,102304.72
2023-05-02T10:48:20.627Z,102299.28
2023-05-02T10:50:51.897Z,102300.28
2023-05-02T10:53:37.740Z,102299.28
2023-05-02T10:56:18.601Z,102300.97
2023-05-02T10:58:47.126Z,102293.13
2023-05-02T11:01:29.793Z,102293.94
2023-05-02T11:04:04.458Z,102293.06
2023-05-02T11:06:34.979Z,102291.34
2023-05-02T11:09:17.409Z,102295.78
2023-05-02T11:11:46.744Z,102293.16
2023-05-02T11:14:40.061Z,102303.84
2023-05-02T11:17:09.356Z,102302.94
2023-05-02T11:19:39.687Z,102300.22
2023-05-02T11:22:22.470Z,102306.41
2023-05-02T11:24:52.612Z,102305.59
2023-05-02T11:27:38.968Z,102304.63
2023-05-02T11:30:07.773Z,102310.81
2023-05-02T11:32:49.426Z,102309.94
2023-05-02T11:35:16.946Z,102313.53
2023-05-02T11:37:44.505Z,102311.00
2023-05-02T11:40:15.829Z,102318.84
2023-05-02T11:42:43.131Z,102318.78
2023-05-02T11:45:11.530Z,102318.84
2023-05-02T11:47:38.869Z,102323.16
2023-05-02T11:50:06.923Z,102320.56
2023-05-02T11:52:42.574Z,102327.53
2023-05-02T11:55:14.587Z,102333.78
2023-05-02T11:57:43.351Z,102329.44
2023-05-02T12:00:13.927Z,102331.16
2023-05-02T12:02:45.986Z,102334.75
2023-05-02T12:05:19.713Z,102333.78
2023-05-02T12:07:49.760Z,102340.78
2023-05-02T12:10:17.026Z,102336.44
2023-05-02T12:12:45.173Z,102335.50
2023-05-02T12:15:13.704Z,102330.75
2023-05-02T12:17:44.826Z,102333.13
2023-05-02T12:20:12.981Z,102325.69
2023-05-02T12:22:40.335Z,102328.75
2023-05-02T12:25:08.325Z,102323.09
2023-05-02T12:27:35.769Z,102320.22
2023-05-02T12:30:03.784Z,102323.56
2023-05-02T12:32:34.545Z,102321.53
2023-05-02T12:35:04.338Z,102331.97
2023-05-02T12:37:31.627Z,102323.97
2023-05-02T12:39:59.667Z,102315.94
2023-05-02T12:42:27.503Z,102314.94
2023-05-02T12:44:54.880Z,102322.78
2023-05-02T12:47:26.481Z,102319.19
2023-05-02T12:49:57.655Z,102321.84
2023-05-02T12:52:47.590Z,102315.44
2023-05-02T12:55:24.992Z,102327.91
2023-05-02T12:58:00.475Z,102327.81
2023-05-02T13:00:27.823Z,102328.66
2023-05-02T13:02:57.091Z,102335.63
2023-05-02T13:05:24.593Z,102325.59
2023-05-02T13:07:52.493Z,102323.75
2023-05-02T13:10:20.450Z,102316.59
2023-05-02T13:12:50.158Z,102319.31
2023-05-02T13:15:17.524Z,102328.00
2023-05-02T13:17:45.465Z,102317.34
2023-05-02T13:20:13.959Z,102324.19
2023-05-02T13:22:41.297Z,102324.94
2023-05-02T13:25:10.650Z,102331.97
2023-05-02T13:27:38.852Z,102327.53
2023-05-02T13:30:09.121Z,102328.78
2023-05-02T13:32:37.443Z,102326.53
2023-05-02T13:35:06.302Z,102343.94
2023-05-02T13:37:33.549Z,102334.16
2023-05-02T13:40:01.242Z,102333.81
2023-05-02T13:42:28.913Z,102328.38
2023-05-02T13:44:56.519Z,102322.84
2023-05-02T13:47:24.917Z,102328.97
2023-05-02T13:49:52.423Z,102321.78
2023-05-02T13:52:19.707Z,102327.84
2023-05-02T13:54:47.128Z,102329.66
2023-05-02T13:57:14.393Z,102333.25
2023-05-02T13:59:41.576Z,102330.56
2023-05-02T14:02:11.579Z,102329.41
2023-05-02T14:04:39.093Z,102334.25
2023-05-02T14:07:06.930Z,102334.97
2023-05-02T14:09:33.942Z,102326.03
2023-05-02T14:12:02.435Z,102333.81
2023-05-02T14:14:29.556Z,102322.09
2023-05-02T14:16:56.671Z,102334.38
2023-05-02T14:19:23.778Z,102328.16
2023-05-02T14:21:50.869Z,102324.56
2023-05-02T14:24:18.792Z,102326.19
2023-05-02T14:26:45.898Z,102318.09
2023-05-02T14:29:12.866Z,102320.66
2023-05-02T14:31:39.865Z,102316.06
2023-05-02T14:34:08.927Z,102318.56
2023-05-02T14:36:36.215Z,102309.66
2023-05-02T14:39:03.451Z,102299.03
2023-05-02T14:41:30.683Z,102311.19
2023-05-02T14:43:58.510Z,102290.75
2023-05-02T14:46:25.698Z,102301.31
2023-05-02T14:48:52.893Z,102291.41
2023-05-02T14:51:20.045Z,102295.78
2023-05-02T14:53:49.340Z,102295.63
2023-05-02T14:56:17.748Z,102294.63
2023-05-02T14:58:45.587Z,102294.59
2023-05-02T15:01:25.060Z,102289.28
2023-05-02T15:04:05.917Z,102287.53
2023-05-02T15:06:35.735Z,102298.03
2023-05-02T15:09:03.764Z,102289.16
2023-05-02T15:11:35.622Z,102290.72
2023-05-02T15:14:02.798Z,102288.88
2023-05-02T15:16:30.443Z,102301.13
2023-05-02T15:18:59.835Z,102302.31
2023-05-02T15:21:27.131Z,102298.81
2023-05-02T15:23:54.449Z,102300.66
2023-05-02T15:26:21.893Z,102309.28
2023-05-02T15:28:49.436Z,102301.31
2023-05-02T15:31:16.534Z,102299.38
2023-05-02T15:33:44.000Z,102302.03
2023-05-02T15:36:11.633Z,102297.72
2023-05-02T15:38:43.263Z,102302.13
2023-05-02T15:41:12.419Z,102294.66
2023-05-02T15:43:39.722Z,102296.06
2023-05-02T15:46:07.013Z,102291.38
2023-05-02T15:48:35.351Z,102285.00
2023-05-02T15:51:03.311Z,102277.91
2023-05-02T15:53:31.211Z,102277.97
2023-05-02T15:55:58.554Z,102282.28
2023-05-02T15:58:26.474Z,102279.63
2023-05-02T16:00:53.717Z,102280.97
2023-05-02T16:03:21.142Z,102278.13
2023-05-02T16:05:48.320Z,102269.69
2023-05-02T16:08:16.037Z,102276.78
2023-05-02T16:10:43.910Z,102278.66
2023-05-02T16:13:11.394Z,102286.06
2023-05-02T16:15:39.607Z,102281.63
2023-05-02T16:18:07.003Z,102278.88
2023-05-02T16:20:37.355Z,102282.50
2023-05-02T16:23:05.087Z,102293.03
2023-05-02T16:25:33.091Z,102289.63
2023-05-02T16:28:00.444Z,102290.50
2023-05-02T16:30:28.700Z,102285.38
2023-05-02T16:32:55.992Z,102294.03
2023-05-02T16:35:23.196Z,102287.94
2023-05-02T16:37:50.340Z,102290.56
2023-05-02T16:40:18.920Z,102288.88
2023-05-02T16:42:46.719Z,102277.88
2023-05-02T16:45:15.600Z,102282.69
2023-05-02T16:47:43.759Z,102287.53
2023-05-02T16:50:11.319Z,102289.38
2023-05-02T16:52:38.586Z,102301.16
2023-05-02T16:55:06.820Z,102302.53
2023-05-02T16:57:33.810Z,102304.75
2023-05-02T17:00:02.105Z,102305.78
2023-05-02T17:02:29.350Z,102305.72
2023-05-02T17:04:56.594Z,102299.13
2023-05-02T17:07:23.620Z,102297.81
2023-05-02T17:09:50.660Z,102289.47
2023-05-02T17:12:22.771Z,102290.28
2023-05-02T17:14:50.133Z,102284.94
2023-05-02T17:17:19.203Z,102286.50
2023-05-02T17:19:46.613Z,102283.75
2023-05-02T17:22:13.724Z,102292.53
2023-05-02T17:24:41.078Z,102294.34
2023-05-02T17:27:08.432Z,102300.09
2023-05-02T17:29:35.868Z,102304.50
2023-05-02T17:32:03.118Z,102307.88
2023-05-02T17:34:30.920Z,102298.97
2023-05-02T17:36:58.022Z,102291.81
2023-05-02T17:39:25.316Z,102299.75
2023-05-02T17:41:52.723Z,102301.34
2023-05-02T17:44:20.425Z,102304.00
2023-05-02T17:46:47.691Z,102302.19
2023-05-02T17:49:14.934Z,102305.75
2023-05-02T17:51:42.282Z,102304.38
2023-05-02T17:54:09.866Z,102307.72
2023-05-02T17:56:37.877Z,102313.81
2023-05-02T17:59:05.541Z,102315.59
2023-05-02T18:01:33.441Z,102313.66
2023-05-02T18:04:01.514Z,102311.19
2023-05-02T18:06:28.823Z,102303.72
2023-05-02T18:08:56.940Z,102310.66
2023-05-02T18:11:27.217Z,102307.03
2023-05-02T18:13:54.361Z,102300.84
2023-05-02T18:16:21.516Z,102301.03
2023-05-02T18:18:48.778Z,102303.16
2023-05-02T18:21:23.044Z,102298.59
2023-05-02T18:23:50.442Z,102315.22
2023-05-02T18:26:18.899Z,102321.44
2023-05-02T18:28:48.190Z,102331.91
2023-05-02T18:31:18.187Z,102320.31
2023-05-02T18:33:49.559Z,102317.53
2023-05-02T18:36:21.419Z,102318.38
2023-05-02T18:38:49.385Z,102309.50
2023-05-02T18:41:18.095Z,102321.03
2023-05-02T18:43:45.602Z,102328.94
2023-05-02T18:46:12.904Z,102330.56
2023-05-02T18:48:40.293Z,102338.44
2023-05-02T18:51:07.412Z,102345.22
2023-05-02T18:53:34.628Z,102345.06
2023-05-02T18:56:01.825Z,102343.97
2023-05-02T18:58:29.042Z,102337.59
2023-05-02T19:00:56.434Z,102341.75
2023-05-02T19:03:24.927Z,102344.13
2023-05-02T19:05:52.341Z,102345.53
2023-05-02T19:08:21.507Z,102344.38
2023-05-02T19:10:52.135Z,102342.28
2023-05-02T19:13:19.269Z,102334.97
2023-05-02T19:15:48.267Z,102330.28
2023-05-02T19:18:15.765Z,102333.59
2023-05-02T19:20:43.287Z,102340.41
2023-05-02T19:23:19.807Z,102330.38
2023-05-02T19:25:48.426Z,102335.41
2023-05-02T19:28:19.416Z,102338.78
2023-05-02T19:30:46.719Z,102344.88
2023-05-02T19:33:14.232Z,102345.59
2023-05-02T19:35:42.359Z,102343.53
2023-05-02T19:38:11.720Z,102346.72
2023-05-02T19:40:39.768Z,102350.72
2023-05-02T19:43:06.924Z,102347.72
2023-05-02T19:45:35.483Z,102351.19
2023-05-02T19:48:03.109Z,102351.78
2023-05-02T19:50:34.611Z,102351.59
2023-05-02T19:53:02.526Z,102352.25
2023-05-02T19:55:30.571Z,102357.41
2023-05-02T19:57:57.852Z,102366.09
2023-05-02T20:00:25.459Z,102369.19
2023-05-02T20:02:53.296Z,102368.97
2023-05-02T20:05:22.774Z,102360.84
2023-05-02T20:07:50.532Z,102358.06
2023-05-02T20:10:18.915Z,102351.63
2023-05-02T20:12:47.951Z,102350.63
2023-05-02T20:15:17.832Z,102345.53
2023-05-02T20:17:46.344Z,102356.00
2023-05-02T20:20:15.125Z,102353.94
2023-05-02T20:22:46.060Z,102356.44
2023-05-02T20:25:17.298Z,102357.75
2023-05-02T20:27:45.130Z,102358.72
2023-05-02T20:30:14.571Z,102352.50
2023-05-02T20:32:41.934Z,102371.94
2023-05-02T20:35:11.591Z,102374.50
2023-05-02T20:37:40.339Z,102372.66
2023-05-02T20:40:12.670Z,102368.13
2023-05-02T20:42:42.991Z,102372.50
2023-05-02T20:45:14.927Z,102378.69
2023-05-02T20:47:43.635Z,102372.50
2023-05-02T20:50:11.714Z,102369.78
2023-05-02T20:52:40.591Z,102377.81
2023-05-02T20:55:08.699Z,102374.22
2023-05-02T20:57:36.896Z,102368.91
2023-05-02T21:00:05.657Z,102378.69
2023-05-02T21:02:33.588Z,102387.25
2023-05-02T21:05:01.134Z,102386.66
2023-05-02T21:07:28.833Z,102384.41
2023-05-02T21:09:56.190Z,102388.59
2023-05-02T21:12:23.373Z,102383.72
2023-05-02T21:14:55.346Z,102388.44
2023-05-02T21:17:22.599Z,102383.44
2023-05-02T21:19:49.892Z,102388.97
2023-05-02T21:22:17.297Z,102390.91
2023-05-02T21:24:48.547Z,102384.03
2023-05-02T21:27:16.679Z,102378.94
2023-05-02T21:29:44.203Z,102380.84
2023-05-02T21:32:11.933Z,102379.25
2023-05-02T21:34:39.519Z,102375.97
2023-05-02T21:37:07.407Z,102387.41
2023-05-02T21:39:35.530Z,102386.81
2023-05-02T21:42:02.978Z,102384.16
2023-05-02T21:44:30.332Z,102381.63
2023-05-02T21:46:58.028Z,102380.84
2023-05-02T21:49:25.611Z,102377.50
2023-05-02T21:51:52.896Z,102373.34
2023-05-02T21:54:19.974Z,102366.34
2023-05-02T21:56:47.100Z,102366.59
2023-05-02T21:59:14.354Z,102369.31
2023-05-02T22:01:41.583Z,102358.81
2023-05-02T22:04:09.065Z,102374.00
2023-05-02T22:06:36.637Z,102373.28
2023-05-02T22:09:05.704Z,102374.31
2023-05-02T22:11:33.338Z,102365.63
2023-05-02T22:14:00.565Z,102358.66
2023-05-02T22:16:27.684Z,102370.19
2023-05-02T22:18:54.906Z,102366.78
2023-05-02T22:21:22.948Z,102368.66
2023-05-02T22:23:50.073Z,102373.16
2023-05-02T22:26:17.330Z,102368.84
2023-05-02T22:28:44.608Z,102362.72
2023-05-02T22:31:12.029Z,102359.31
2023-05-02T22:33:39.609Z,102366.50
2023-05-02T22:36:07.052Z,102363.97
2023-05-02T22:38:34.273Z,102364.94
2023-05-02T22:41:01.803Z,102365.00
2023-05-02T22:43:28.848Z,102363.41
2023-05-02T22:45:56.451Z,102366.97
2023-05-02T22:48:23.410Z,102364.44
2023-05-02T22:50:50.459Z,102360.22
2023-05-02T22:53:17.533Z,102368.28
2023-05-02T22:55:44.827Z,102384.22
2023-05-02T22:58:12.156Z,102378.13
2023-05-02T23:00:39.445Z,102379.09
2023-05-02T23:03:06.582Z,102390.72
2023-05-02T23:05:33.645Z,102395.34
2023-05-02T23:08:00.756Z,102390.03
2023-05-02T23:10:27.893Z,102401.56
2023-05-02T23:12:54.873Z,102390.13
2023-05-02T23:15:21.890Z,102391.06
2023-05-02T23:17:49.501Z,102392.91
2023-05-02T23:20:19.888Z,102391.19
2023-05-02T23:22:47.028Z,102383.38
2023-05-02T23:25:15.620Z,102388.69
2023-05-02T23:27:42.746Z,102390.59
2023-05-02T23:30:10.268Z,102392.38
2023-05-02T23:32:37.975Z,102390.72
2023-05-02T23:35:06.279Z,102387.38
2023-05-02T23:37:33.769Z,102389.19
2023-05-02T23:40:01.513Z,102397.06
2023-05-02T23:42:32.538Z,102392.75
2023-05-02T23:44:59.538Z,102392.78
2023-05-02T23:47:27.461Z,102385.81
2023-05-02T23:49:54.730Z,102387.66
2023-05-02T23:52:21.792Z,102385.94
2023-05-02T23:54:48.978Z,102376.34
2023-05-02T23:57:16.014Z,102375.44
2023-05-02T23:59:42.908Z,102375.44
